sensor_id;sensor_type;location;lat;lon;timestamp;P1;durP1;ratioP1;P2;durP2;ratioP2
78844;SDS011;68195;50.854;2.860;2024-01-30T00:02:19;7.70;;;4.93;;
78844;SDS011;68195;50.854;2.860;2024-01-30T00:04:44;9.35;;;5.65;;
78844;SDS011;68195;50.854;2.860;2024-01-30T00:07:12;11.38;;;6.68;;
78844;SDS011;68195;50.854;2.860;2024-01-30T00:09:38;9.88;;;6.38;;
78844;SDS011;68195;50.854;2.860;2024-01-30T00:12:04;11.32;;;5.05;;
78844;SDS011;68195;50.854;2.860;2024-01-30T00:14:31;11.63;;;5.60;;
78844;SDS011;68195;50.854;2.860;2024-01-30T00:16:58;8.05;;;5.15;;
78844;SDS011;68195;50.854;2.860;2024-01-30T00:19:24;9.10;;;5.50;;
78844;SDS011;68195;50.854;2.860;2024-01-30T00:21:49;8.60;;;5.15;;
78844;SDS011;68195;50.854;2.860;2024-01-30T00:24:15;6.97;;;4.93;;
78844;SDS011;68195;50.854;2.860;2024-01-30T00:26:40;9.27;;;4.80;;
78844;SDS011;68195;50.854;2.860;2024-01-30T00:29:05;9.50;;;5.20;;
78844;SDS011;68195;50.854;2.860;2024-01-30T00:31:31;10.13;;;5.43;;
78844;SDS011;68195;50.854;2.860;2024-01-30T00:33:56;6.70;;;5.32;;
78844;SDS011;68195;50.854;2.860;2024-01-30T00:36:24;8.27;;;5.50;;
78844;SDS011;68195;50.854;2.860;2024-01-30T00:38:50;8.30;;;5.28;;
78844;SDS011;68195;50.854;2.860;2024-01-30T00:41:17;6.80;;;5.05;;
78844;SDS011;68195;50.854;2.860;2024-01-30T00:43:44;8.90;;;5.53;;
78844;SDS011;68195;50.854;2.860;2024-01-30T00:46:09;7.13;;;5.40;;
78844;SDS011;68195;50.854;2.860;2024-01-30T00:48:37;10.05;;;5.38;;
78844;SDS011;68195;50.854;2.860;2024-01-30T00:51:05;8.60;;;5.95;;
78844;SDS011;68195;50.854;2.860;2024-01-30T00:53:30;7.82;;;5.05;;
78844;SDS011;68195;50.854;2.860;2024-01-30T00:55:58;6.53;;;4.22;;
78844;SDS011;68195;50.854;2.860;2024-01-30T00:58:23;8.45;;;5.57;;
78844;SDS011;68195;50.854;2.860;2024-01-30T01:00:49;7.88;;;5.22;;
78844;SDS011;68195;50.854;2.860;2024-01-30T01:03:17;7.97;;;4.38;;
78844;SDS011;68195;50.854;2.860;2024-01-30T01:05:43;8.45;;;5.95;;
78844;SDS011;68195;50.854;2.860;2024-01-30T01:08:11;9.57;;;5.32;;
78844;SDS011;68195;50.854;2.860;2024-01-30T01:10:36;8.23;;;4.97;;
78844;SDS011;68195;50.854;2.860;2024-01-30T01:13:04;8.25;;;5.25;;
78844;SDS011;68195;50.854;2.860;2024-01-30T01:15:31;9.82;;;4.90;;
78844;SDS011;68195;50.854;2.860;2024-01-30T01:18:00;7.47;;;5.10;;
78844;SDS011;68195;50.854;2.860;2024-01-30T01:20:27;8.40;;;5.25;;
78844;SDS011;68195;50.854;2.860;2024-01-30T01:22:53;8.73;;;5.20;;
78844;SDS011;68195;50.854;2.860;2024-01-30T01:25:19;8.82;;;5.28;;
78844;SDS011;68195;50.854;2.860;2024-01-30T01:27:44;7.60;;;5.05;;
78844;SDS011;68195;50.854;2.860;2024-01-30T01:30:16;8.48;;;5.05;;
78844;SDS011;68195;50.854;2.860;2024-01-30T01:32:46;7.85;;;5.28;;
78844;SDS011;68195;50.854;2.860;2024-01-30T01:35:23;6.53;;;4.88;;
78844;SDS011;68195;50.854;2.860;2024-01-30T01:37:50;7.82;;;4.55;;
78844;SDS011;68195;50.854;2.860;2024-01-30T01:40:24;6.93;;;4.72;;
78844;SDS011;68195;50.854;2.860;2024-01-30T01:42:55;6.85;;;4.40;;
78844;SDS011;68195;50.854;2.860;2024-01-30T01:45:23;7.63;;;4.88;;
78844;SDS011;68195;50.854;2.860;2024-01-30T01:47:52;9.90;;;5.38;;
78844;SDS011;68195;50.854;2.860;2024-01-30T01:50:18;7.35;;;4.82;;
78844;SDS011;68195;50.854;2.860;2024-01-30T01:52:46;7.97;;;4.82;;
78844;SDS011;68195;50.854;2.860;2024-01-30T01:55:13;7.75;;;4.47;;
78844;SDS011;68195;50.854;2.860;2024-01-30T01:57:41;7.00;;;4.32;;
78844;SDS011;68195;50.854;2.860;2024-01-30T02:00:09;6.72;;;4.57;;
78844;SDS011;68195;50.854;2.860;2024-01-30T02:02:36;7.45;;;4.90;;
78844;SDS011;68195;50.854;2.860;2024-01-30T02:05:02;6.50;;;4.63;;
78844;SDS011;68195;50.854;2.860;2024-01-30T02:07:30;7.70;;;5.00;;
78844;SDS011;68195;50.854;2.860;2024-01-30T02:09:56;8.07;;;4.85;;
78844;SDS011;68195;50.854;2.860;2024-01-30T02:12:21;6.82;;;4.85;;
78844;SDS011;68195;50.854;2.860;2024-01-30T02:14:47;8.98;;;5.20;;
78844;SDS011;68195;50.854;2.860;2024-01-30T02:17:13;7.07;;;5.20;;
78844;SDS011;68195;50.854;2.860;2024-01-30T02:19:39;7.25;;;4.93;;
78844;SDS011;68195;50.854;2.860;2024-01-30T02:22:07;6.20;;;5.05;;
78844;SDS011;68195;50.854;2.860;2024-01-30T02:24:33;8.73;;;5.28;;
78844;SDS011;68195;50.854;2.860;2024-01-30T02:26:58;7.55;;;5.15;;
78844;SDS011;68195;50.854;2.860;2024-01-30T02:29:28;7.45;;;4.90;;
78844;SDS011;68195;50.854;2.860;2024-01-30T02:31:56;7.82;;;4.78;;
78844;SDS011;68195;50.854;2.860;2024-01-30T02:34:24;8.45;;;5.10;;
78844;SDS011;68195;50.854;2.860;2024-01-30T02:36:49;7.30;;;4.97;;
78844;SDS011;68195;50.854;2.860;2024-01-30T02:39:15;9.73;;;5.35;;
78844;SDS011;68195;50.854;2.860;2024-01-30T02:41:40;8.02;;;5.07;;
78844;SDS011;68195;50.854;2.860;2024-01-30T02:44:05;6.07;;;4.93;;
78844;SDS011;68195;50.854;2.860;2024-01-30T02:46:31;7.85;;;4.93;;
78844;SDS011;68195;50.854;2.860;2024-01-30T02:48:59;7.35;;;5.03;;
78844;SDS011;68195;50.854;2.860;2024-01-30T02:51:24;7.78;;;4.85;;
78844;SDS011;68195;50.854;2.860;2024-01-30T02:53:50;8.82;;;5.07;;
78844;SDS011;68195;50.854;2.860;2024-01-30T02:56:15;10.32;;;4.93;;
78844;SDS011;68195;50.854;2.860;2024-01-30T02:58:43;9.00;;;4.93;;
78844;SDS011;68195;50.854;2.860;2024-01-30T03:01:08;9.30;;;5.07;;
78844;SDS011;68195;50.854;2.860;2024-01-30T03:03:33;7.47;;;5.57;;
78844;SDS011;68195;50.854;2.860;2024-01-30T03:06:01;8.30;;;4.80;;
78844;SDS011;68195;50.854;2.860;2024-01-30T03:08:29;9.43;;;6.78;;
78844;SDS011;68195;50.854;2.860;2024-01-30T03:10:55;9.77;;;5.70;;
78844;SDS011;68195;50.854;2.860;2024-01-30T03:13:21;7.88;;;5.32;;
78844;SDS011;68195;50.854;2.860;2024-01-30T03:15:50;9.88;;;5.55;;
78844;SDS011;68195;50.854;2.860;2024-01-30T03:18:17;6.93;;;4.82;;
78844;SDS011;68195;50.854;2.860;2024-01-30T03:20:43;11.55;;;5.78;;
78844;SDS011;68195;50.854;2.860;2024-01-30T03:23:08;10.45;;;5.70;;
78844;SDS011;68195;50.854;2.860;2024-01-30T03:25:34;8.32;;;5.95;;
78844;SDS011;68195;50.854;2.860;2024-01-30T03:28:02;8.93;;;5.60;;
78844;SDS011;68195;50.854;2.860;2024-01-30T03:30:30;8.05;;;5.03;;
78844;SDS011;68195;50.854;2.860;2024-01-30T03:32:55;10.65;;;4.70;;
78844;SDS011;68195;50.854;2.860;2024-01-30T03:35:20;7.60;;;4.47;;
78844;SDS011;68195;50.854;2.860;2024-01-30T03:37:46;7.15;;;4.93;;
78844;SDS011;68195;50.854;2.860;2024-01-30T03:40:11;8.40;;;5.05;;
78844;SDS011;68195;50.854;2.860;2024-01-30T03:42:40;8.60;;;5.00;;
78844;SDS011;68195;50.854;2.860;2024-01-30T03:45:10;8.93;;;5.15;;
78844;SDS011;68195;50.854;2.860;2024-01-30T03:47:38;6.22;;;4.57;;
78844;SDS011;68195;50.854;2.860;2024-01-30T03:50:06;7.10;;;4.75;;
78844;SDS011;68195;50.854;2.860;2024-01-30T03:52:32;9.45;;;5.70;;
78844;SDS011;68195;50.854;2.860;2024-01-30T03:54:57;8.63;;;5.38;;
78844;SDS011;68195;50.854;2.860;2024-01-30T03:57:23;9.65;;;5.50;;
78844;SDS011;68195;50.854;2.860;2024-01-30T03:59:50;8.65;;;5.32;;
78844;SDS011;68195;50.854;2.860;2024-01-30T04:02:16;7.60;;;4.68;;
78844;SDS011;68195;50.854;2.860;2024-01-30T04:04:42;11.40;;;5.88;;
78844;SDS011;68195;50.854;2.860;2024-01-30T04:07:08;9.20;;;5.32;;
78844;SDS011;68195;50.854;2.860;2024-01-30T04:09:35;6.25;;;4.50;;
78844;SDS011;68195;50.854;2.860;2024-01-30T04:12:03;9.50;;;5.35;;
78844;SDS011;68195;50.854;2.860;2024-01-30T04:14:29;8.63;;;5.45;;
78844;SDS011;68195;50.854;2.860;2024-01-30T04:16:56;8.82;;;5.22;;
78844;SDS011;68195;50.854;2.860;2024-01-30T04:19:22;6.88;;;4.88;;
78844;SDS011;68195;50.854;2.860;2024-01-30T04:21:47;7.88;;;5.28;;
78844;SDS011;68195;50.854;2.860;2024-01-30T04:24:15;7.35;;;4.30;;
78844;SDS011;68195;50.854;2.860;2024-01-30T04:26:43;10.57;;;4.95;;
78844;SDS011;68195;50.854;2.860;2024-01-30T04:29:09;9.38;;;5.50;;
78844;SDS011;68195;50.854;2.860;2024-01-30T04:31:36;8.00;;;4.97;;
78844;SDS011;68195;50.854;2.860;2024-01-30T04:34:02;9.05;;;5.03;;
78844;SDS011;68195;50.854;2.860;2024-01-30T04:36:27;7.55;;;5.03;;
78844;SDS011;68195;50.854;2.860;2024-01-30T04:38:55;8.82;;;5.78;;
78844;SDS011;68195;50.854;2.860;2024-01-30T04:41:22;8.68;;;5.15;;
78844;SDS011;68195;50.854;2.860;2024-01-30T04:43:48;8.25;;;5.32;;
78844;SDS011;68195;50.854;2.860;2024-01-30T04:46:13;10.05;;;5.60;;
78844;SDS011;68195;50.854;2.860;2024-01-30T04:48:39;9.73;;;5.40;;
78844;SDS011;68195;50.854;2.860;2024-01-30T04:51:04;8.32;;;5.50;;
78844;SDS011;68195;50.854;2.860;2024-01-30T04:53:32;7.38;;;5.25;;
78844;SDS011;68195;50.854;2.860;2024-01-30T04:55:57;8.57;;;5.40;;
78844;SDS011;68195;50.854;2.860;2024-01-30T04:58:25;7.72;;;4.68;;
78844;SDS011;68195;50.854;2.860;2024-01-30T05:00:55;8.32;;;5.32;;
78844;SDS011;68195;50.854;2.860;2024-01-30T05:03:20;8.27;;;5.57;;
78844;SDS011;68195;50.854;2.860;2024-01-30T05:05:47;10.18;;;6.15;;
78844;SDS011;68195;50.854;2.860;2024-01-30T05:08:13;9.05;;;5.78;;
78844;SDS011;68195;50.854;2.860;2024-01-30T05:10:40;12.88;;;5.78;;
78844;SDS011;68195;50.854;2.860;2024-01-30T05:13:08;8.50;;;5.65;;
78844;SDS011;68195;50.854;2.860;2024-01-30T05:15:38;7.90;;;4.93;;
78844;SDS011;68195;50.854;2.860;2024-01-30T05:18:04;8.98;;;5.97;;
78844;SDS011;68195;50.854;2.860;2024-01-30T05:20:32;9.93;;;5.93;;
78844;SDS011;68195;50.854;2.860;2024-01-30T05:22:58;9.30;;;5.72;;
78844;SDS011;68195;50.854;2.860;2024-01-30T05:25:23;8.77;;;5.70;;
78844;SDS011;68195;50.854;2.860;2024-01-30T05:27:51;10.23;;;5.95;;
78844;SDS011;68195;50.854;2.860;2024-01-30T05:30:16;8.98;;;5.60;;
78844;SDS011;68195;50.854;2.860;2024-01-30T05:32:43;9.13;;;5.70;;
78844;SDS011;68195;50.854;2.860;2024-01-30T05:35:10;8.88;;;5.45;;
78844;SDS011;68195;50.854;2.860;2024-01-30T05:37:36;7.97;;;5.93;;
78844;SDS011;68195;50.854;2.860;2024-01-30T05:40:01;9.23;;;5.93;;
78844;SDS011;68195;50.854;2.860;2024-01-30T05:42:27;9.57;;;6.30;;
78844;SDS011;68195;50.854;2.860;2024-01-30T05:44:55;10.68;;;6.65;;
78844;SDS011;68195;50.854;2.860;2024-01-30T05:47:23;10.82;;;6.45;;
78844;SDS011;68195;50.854;2.860;2024-01-30T05:49:53;9.55;;;5.80;;
78844;SDS011;68195;50.854;2.860;2024-01-30T05:52:18;10.00;;;6.13;;
78844;SDS011;68195;50.854;2.860;2024-01-30T05:54:44;9.75;;;6.18;;
78844;SDS011;68195;50.854;2.860;2024-01-30T05:57:09;9.23;;;5.45;;
78844;SDS011;68195;50.854;2.860;2024-01-30T05:59:35;8.32;;;5.22;;
78844;SDS011;68195;50.854;2.860;2024-01-30T06:02:01;9.80;;;5.95;;
78844;SDS011;68195;50.854;2.860;2024-01-30T06:04:28;10.82;;;5.72;;
78844;SDS011;68195;50.854;2.860;2024-01-30T06:06:54;8.38;;;5.78;;
78844;SDS011;68195;50.854;2.860;2024-01-30T06:09:22;9.45;;;5.90;;
78844;SDS011;68195;50.854;2.860;2024-01-30T06:11:47;11.18;;;6.00;;
78844;SDS011;68195;50.854;2.860;2024-01-30T06:14:12;9.57;;;6.78;;
78844;SDS011;68195;50.854;2.860;2024-01-30T06:16:38;9.30;;;5.65;;
78844;SDS011;68195;50.854;2.860;2024-01-30T06:19:05;10.68;;;5.97;;
78844;SDS011;68195;50.854;2.860;2024-01-30T06:21:31;8.60;;;6.32;;
78844;SDS011;68195;50.854;2.860;2024-01-30T06:26:22;9.13;;;4.97;;
78844;SDS011;68195;50.854;2.860;2024-01-30T06:28:48;11.90;;;6.30;;
78844;SDS011;68195;50.854;2.860;2024-01-30T06:31:13;8.57;;;5.68;;
78844;SDS011;68195;50.854;2.860;2024-01-30T06:33:41;7.90;;;5.50;;
78844;SDS011;68195;50.854;2.860;2024-01-30T06:38:35;10.07;;;5.25;;
78844;SDS011;68195;50.854;2.860;2024-01-30T06:41:03;9.35;;;5.25;;
78844;SDS011;68195;50.854;2.860;2024-01-30T06:43:31;8.82;;;5.15;;
78844;SDS011;68195;50.854;2.860;2024-01-30T06:45:56;6.97;;;4.70;;
78844;SDS011;68195;50.854;2.860;2024-01-30T06:48:22;12.43;;;5.43;;
78844;SDS011;68195;50.854;2.860;2024-01-30T06:50:47;11.98;;;5.43;;
78844;SDS011;68195;50.854;2.860;2024-01-30T06:53:14;8.27;;;4.78;;
78844;SDS011;68195;50.854;2.860;2024-01-30T06:55:39;10.27;;;4.93;;
78844;SDS011;68195;50.854;2.860;2024-01-30T06:58:05;7.78;;;5.32;;
78844;SDS011;68195;50.854;2.860;2024-01-30T07:00:30;8.63;;;5.35;;
78844;SDS011;68195;50.854;2.860;2024-01-30T07:02:56;8.57;;;5.75;;
78844;SDS011;68195;50.854;2.860;2024-01-30T07:05:24;9.63;;;5.90;;
78844;SDS011;68195;50.854;2.860;2024-01-30T07:07:49;10.18;;;5.93;;
78844;SDS011;68195;50.854;2.860;2024-01-30T07:10:14;9.75;;;5.22;;
78844;SDS011;68195;50.854;2.860;2024-01-30T07:15:07;9.20;;;5.20;;
78844;SDS011;68195;50.854;2.860;2024-01-30T07:17:36;11.52;;;4.70;;
78844;SDS011;68195;50.854;2.860;2024-01-30T07:20:02;10.10;;;4.82;;
78844;SDS011;68195;50.854;2.860;2024-01-30T07:22:29;5.68;;;3.42;;
78844;SDS011;68195;50.854;2.860;2024-01-30T07:24:55;7.00;;;3.05;;
78844;SDS011;68195;50.854;2.860;2024-01-30T07:27:20;10.27;;;4.15;;
78844;SDS011;68195;50.854;2.860;2024-01-30T07:29:46;5.38;;;3.15;;
78844;SDS011;68195;50.854;2.860;2024-01-30T07:32:12;8.02;;;3.10;;
78844;SDS011;68195;50.854;2.860;2024-01-30T07:34:39;9.93;;;3.92;;
78844;SDS011;68195;50.854;2.860;2024-01-30T07:37:05;10.60;;;3.90;;
78844;SDS011;68195;50.854;2.860;2024-01-30T07:39:33;9.60;;;4.53;;
78844;SDS011;68195;50.854;2.860;2024-01-30T07:42:00;7.75;;;4.93;;
78844;SDS011;68195;50.854;2.860;2024-01-30T07:44:26;9.23;;;5.80;;
78844;SDS011;68195;50.854;2.860;2024-01-30T07:46:51;11.30;;;5.60;;
78844;SDS011;68195;50.854;2.860;2024-01-30T07:49:17;6.22;;;4.47;;
78844;SDS011;68195;50.854;2.860;2024-01-30T07:51:45;11.20;;;5.65;;
78844;SDS011;68195;50.854;2.860;2024-01-30T07:54:10;10.70;;;5.03;;
78844;SDS011;68195;50.854;2.860;2024-01-30T07:56:39;8.77;;;4.10;;
78844;SDS011;68195;50.854;2.860;2024-01-30T07:59:09;4.15;;;2.58;;
78844;SDS011;68195;50.854;2.860;2024-01-30T08:01:35;6.90;;;2.80;;
78844;SDS011;68195;50.854;2.860;2024-01-30T08:04:03;6.10;;;2.03;;
78844;SDS011;68195;50.854;2.860;2024-01-30T08:06:30;4.18;;;1.85;;
78844;SDS011;68195;50.854;2.860;2024-01-30T08:08:56;2.78;;;1.88;;
78844;SDS011;68195;50.854;2.860;2024-01-30T08:11:24;2.58;;;1.58;;
78844;SDS011;68195;50.854;2.860;2024-01-30T08:13:53;4.07;;;1.80;;
78844;SDS011;68195;50.854;2.860;2024-01-30T08:16:21;2.92;;;1.80;;
78844;SDS011;68195;50.854;2.860;2024-01-30T08:18:47;2.72;;;1.48;;
78844;SDS011;68195;50.854;2.860;2024-01-30T08:21:12;5.75;;;1.35;;
78844;SDS011;68195;50.854;2.860;2024-01-30T08:23:38;2.83;;;1.45;;
78844;SDS011;68195;50.854;2.860;2024-01-30T08:26:04;4.32;;;1.60;;
78844;SDS011;68195;50.854;2.860;2024-01-30T08:28:30;6.53;;;1.75;;
78844;SDS011;68195;50.854;2.860;2024-01-30T08:30:56;5.55;;;1.40;;
78844;SDS011;68195;50.854;2.860;2024-01-30T08:33:22;2.83;;;1.40;;
78844;SDS011;68195;50.854;2.860;2024-01-30T08:35:47;5.35;;;1.38;;
78844;SDS011;68195;50.854;2.860;2024-01-30T08:38:17;4.55;;;2.05;;
78844;SDS011;68195;50.854;2.860;2024-01-30T08:40:43;3.03;;;1.38;;
78844;SDS011;68195;50.854;2.860;2024-01-30T08:43:08;3.40;;;0.95;;
78844;SDS011;68195;50.854;2.860;2024-01-30T08:45:35;3.92;;;1.30;;
78844;SDS011;68195;50.854;2.860;2024-01-30T08:48:00;5.97;;;1.02;;
78844;SDS011;68195;50.854;2.860;2024-01-30T08:50:26;2.20;;;1.08;;
78844;SDS011;68195;50.854;2.860;2024-01-30T08:52:54;2.55;;;0.98;;
78844;SDS011;68195;50.854;2.860;2024-01-30T08:55:21;3.55;;;0.95;;
78844;SDS011;68195;50.854;2.860;2024-01-30T08:57:46;2.78;;;0.93;;
78844;SDS011;68195;50.854;2.860;2024-01-30T09:00:12;4.13;;;0.98;;
78844;SDS011;68195;50.854;2.860;2024-01-30T09:02:38;3.13;;;0.82;;
78844;SDS011;68195;50.854;2.860;2024-01-30T09:05:06;1.77;;;0.60;;
78844;SDS011;68195;50.854;2.860;2024-01-30T09:07:31;2.25;;;0.95;;
78844;SDS011;68195;50.854;2.860;2024-01-30T09:09:59;2.92;;;1.20;;
78844;SDS011;68195;50.854;2.860;2024-01-30T09:12:27;2.28;;;0.95;;
78844;SDS011;68195;50.854;2.860;2024-01-30T09:14:55;1.85;;;1.00;;
78844;SDS011;68195;50.854;2.860;2024-01-30T09:17:22;5.25;;;1.38;;
78844;SDS011;68195;50.854;2.860;2024-01-30T09:19:48;1.35;;;0.90;;
78844;SDS011;68195;50.854;2.860;2024-01-30T09:22:13;2.95;;;1.05;;
78844;SDS011;68195;50.854;2.860;2024-01-30T09:24:39;3.50;;;0.95;;
78844;SDS011;68195;50.854;2.860;2024-01-30T09:27:05;3.47;;;1.13;;
78844;SDS011;68195;50.854;2.860;2024-01-30T09:29:31;1.20;;;0.63;;
78844;SDS011;68195;50.854;2.860;2024-01-30T09:32:00;3.58;;;0.98;;
78844;SDS011;68195;50.854;2.860;2024-01-30T09:34:28;2.65;;;1.00;;
78844;SDS011;68195;50.854;2.860;2024-01-30T09:36:56;1.48;;;0.73;;
78844;SDS011;68195;50.854;2.860;2024-01-30T09:39:24;4.35;;;0.90;;
78844;SDS011;68195;50.854;2.860;2024-01-30T09:44:24;4.10;;;1.20;;
78844;SDS011;68195;50.854;2.860;2024-01-30T09:46:53;2.67;;;1.13;;
78844;SDS011;68195;50.854;2.860;2024-01-30T09:49:18;2.97;;;0.90;;
78844;SDS011;68195;50.854;2.860;2024-01-30T09:51:49;3.13;;;0.85;;
78844;SDS011;68195;50.854;2.860;2024-01-30T09:54:15;2.25;;;1.00;;
78844;SDS011;68195;50.854;2.860;2024-01-30T09:56:47;4.63;;;1.42;;
78844;SDS011;68195;50.854;2.860;2024-01-30T10:01:38;3.30;;;0.80;;
78844;SDS011;68195;50.854;2.860;2024-01-30T10:04:04;2.20;;;0.90;;
78844;SDS011;68195;50.854;2.860;2024-01-30T10:06:31;3.83;;;0.93;;
78844;SDS011;68195;50.854;2.860;2024-01-30T10:08:56;3.88;;;1.05;;
78844;SDS011;68195;50.854;2.860;2024-01-30T10:11:21;4.50;;;1.20;;
78844;SDS011;68195;50.854;2.860;2024-01-30T10:13:47;2.80;;;0.82;;
78844;SDS011;68195;50.854;2.860;2024-01-30T10:16:14;1.88;;;0.90;;
78844;SDS011;68195;50.854;2.860;2024-01-30T10:18:41;4.45;;;1.35;;
78844;SDS011;68195;50.854;2.860;2024-01-30T10:21:07;4.57;;;1.25;;
78844;SDS011;68195;50.854;2.860;2024-01-30T10:23:34;5.45;;;1.55;;
78844;SDS011;68195;50.854;2.860;2024-01-30T10:25:59;6.57;;;1.60;;
78844;SDS011;68195;50.854;2.860;2024-01-30T10:28:27;6.55;;;1.92;;
78844;SDS011;68195;50.854;2.860;2024-01-30T10:30:57;5.32;;;1.13;;
78844;SDS011;68195;50.854;2.860;2024-01-30T10:33:28;5.82;;;1.00;;
78844;SDS011;68195;50.854;2.860;2024-01-30T10:35:56;1.45;;;0.80;;
78844;SDS011;68195;50.854;2.860;2024-01-30T10:38:27;0.73;;;0.70;;
78844;SDS011;68195;50.854;2.860;2024-01-30T10:40:56;4.68;;;1.10;;
78844;SDS011;68195;50.854;2.860;2024-01-30T10:43:22;1.65;;;0.93;;
78844;SDS011;68195;50.854;2.860;2024-01-30T10:46:00;2.42;;;1.08;;
78844;SDS011;68195;50.854;2.860;2024-01-30T10:48:44;4.18;;;1.40;;
78844;SDS011;68195;50.854;2.860;2024-01-30T10:51:20;2.17;;;0.75;;
78844;SDS011;68195;50.854;2.860;2024-01-30T10:53:51;2.72;;;1.27;;
78844;SDS011;68195;50.854;2.860;2024-01-30T10:56:18;3.40;;;1.00;;
78844;SDS011;68195;50.854;2.860;2024-01-30T10:58:46;1.55;;;0.90;;
78844;SDS011;68195;50.854;2.860;2024-01-30T11:01:17;3.25;;;0.73;;
78844;SDS011;68195;50.854;2.860;2024-01-30T11:03:44;5.90;;;1.98;;
78844;SDS011;68195;50.854;2.860;2024-01-30T11:06:10;0.88;;;0.52;;
78844;SDS011;68195;50.854;2.860;2024-01-30T11:08:39;3.72;;;0.73;;
78844;SDS011;68195;50.854;2.860;2024-01-30T11:11:07;1.83;;;0.98;;
78844;SDS011;68195;50.854;2.860;2024-01-30T11:13:36;2.83;;;1.02;;
78844;SDS011;68195;50.854;2.860;2024-01-30T11:16:02;3.03;;;0.80;;
78844;SDS011;68195;50.854;2.860;2024-01-30T11:18:31;5.30;;;0.88;;
78844;SDS011;68195;50.854;2.860;2024-01-30T11:21:01;3.05;;;1.00;;
78844;SDS011;68195;50.854;2.860;2024-01-30T11:23:27;4.50;;;0.82;;
78844;SDS011;68195;50.854;2.860;2024-01-30T11:25:53;5.30;;;1.10;;
78844;SDS011;68195;50.854;2.860;2024-01-30T11:28:20;3.35;;;1.10;;
78844;SDS011;68195;50.854;2.860;2024-01-30T11:30:47;2.15;;;0.70;;
78844;SDS011;68195;50.854;2.860;2024-01-30T11:33:15;3.00;;;0.82;;
78844;SDS011;68195;50.854;2.860;2024-01-30T11:35:55;1.48;;;0.57;;
78844;SDS011;68195;50.854;2.860;2024-01-30T11:38:25;2.60;;;0.80;;
78844;SDS011;68195;50.854;2.860;2024-01-30T11:40:52;2.38;;;0.88;;
78844;SDS011;68195;50.854;2.860;2024-01-30T11:43:21;1.98;;;0.70;;
78844;SDS011;68195;50.854;2.860;2024-01-30T11:45:49;2.03;;;0.70;;
78844;SDS011;68195;50.854;2.860;2024-01-30T11:48:20;3.47;;;0.90;;
78844;SDS011;68195;50.854;2.860;2024-01-30T11:50:48;1.80;;;0.38;;
78844;SDS011;68195;50.854;2.860;2024-01-30T11:53:16;2.30;;;0.50;;
78844;SDS011;68195;50.854;2.860;2024-01-30T11:55:49;0.77;;;0.50;;
78844;SDS011;68195;50.854;2.860;2024-01-30T11:58:15;1.38;;;0.75;;
78844;SDS011;68195;50.854;2.860;2024-01-30T12:00:40;2.72;;;0.80;;
78844;SDS011;68195;50.854;2.860;2024-01-30T12:03:06;2.88;;;0.47;;
78844;SDS011;68195;50.854;2.860;2024-01-30T12:05:32;1.23;;;0.80;;
78844;SDS011;68195;50.854;2.860;2024-01-30T12:08:00;2.50;;;0.63;;
78844;SDS011;68195;50.854;2.860;2024-01-30T12:10:26;3.65;;;0.60;;
78844;SDS011;68195;50.854;2.860;2024-01-30T12:12:54;3.50;;;1.00;;
78844;SDS011;68195;50.854;2.860;2024-01-30T12:15:24;4.13;;;0.77;;
78844;SDS011;68195;50.854;2.860;2024-01-30T12:17:52;0.57;;;0.40;;
78844;SDS011;68195;50.854;2.860;2024-01-30T12:20:28;2.40;;;0.95;;
78844;SDS011;68195;50.854;2.860;2024-01-30T12:22:54;1.17;;;0.68;;
78844;SDS011;68195;50.854;2.860;2024-01-30T12:25:20;0.80;;;0.63;;
78844;SDS011;68195;50.854;2.860;2024-01-30T12:27:46;1.60;;;0.80;;
78844;SDS011;68195;50.854;2.860;2024-01-30T12:30:22;2.25;;;0.73;;
78844;SDS011;68195;50.854;2.860;2024-01-30T12:32:49;0.75;;;0.65;;
78844;SDS011;68195;50.854;2.860;2024-01-30T12:35:16;5.88;;;1.02;;
78844;SDS011;68195;50.854;2.860;2024-01-30T12:37:45;2.40;;;0.93;;
78844;SDS011;68195;50.854;2.860;2024-01-30T12:40:13;7.47;;;1.00;;
78844;SDS011;68195;50.854;2.860;2024-01-30T12:42:40;1.38;;;0.68;;
78844;SDS011;68195;50.854;2.860;2024-01-30T12:45:11;0.85;;;0.45;;
78844;SDS011;68195;50.854;2.860;2024-01-30T12:47:36;3.45;;;0.80;;
78844;SDS011;68195;50.854;2.860;2024-01-30T12:50:07;1.38;;;0.55;;
78844;SDS011;68195;50.854;2.860;2024-01-30T12:52:32;2.50;;;0.85;;
78844;SDS011;68195;50.854;2.860;2024-01-30T12:55:00;2.30;;;0.70;;
78844;SDS011;68195;50.854;2.860;2024-01-30T12:57:25;4.70;;;0.98;;
78844;SDS011;68195;50.854;2.860;2024-01-30T12:59:53;3.17;;;1.05;;
78844;SDS011;68195;50.854;2.860;2024-01-30T13:02:20;2.42;;;1.23;;
78844;SDS011;68195;50.854;2.860;2024-01-30T13:04:47;3.67;;;1.48;;
78844;SDS011;68195;50.854;2.860;2024-01-30T13:07:13;1.38;;;0.95;;
78844;SDS011;68195;50.854;2.860;2024-01-30T13:09:40;2.92;;;0.88;;
78844;SDS011;68195;50.854;2.860;2024-01-30T13:12:09;3.05;;;1.00;;
78844;SDS011;68195;50.854;2.860;2024-01-30T13:14:34;7.57;;;1.20;;
78844;SDS011;68195;50.854;2.860;2024-01-30T13:17:02;3.05;;;1.10;;
78844;SDS011;68195;50.854;2.860;2024-01-30T13:19:28;2.83;;;0.82;;
78844;SDS011;68195;50.854;2.860;2024-01-30T13:21:58;6.20;;;1.10;;
78844;SDS011;68195;50.854;2.860;2024-01-30T13:24:26;4.10;;;1.25;;
78844;SDS011;68195;50.854;2.860;2024-01-30T13:26:54;4.63;;;0.80;;
78844;SDS011;68195;50.854;2.860;2024-01-30T13:29:26;2.28;;;1.20;;
78844;SDS011;68195;50.854;2.860;2024-01-30T13:31:56;3.83;;;1.23;;
78844;SDS011;68195;50.854;2.860;2024-01-30T13:34:22;6.72;;;1.30;;
78844;SDS011;68195;50.854;2.860;2024-01-30T13:36:52;5.03;;;1.13;;
78844;SDS011;68195;50.854;2.860;2024-01-30T13:39:17;4.93;;;1.83;;
78844;SDS011;68195;50.854;2.860;2024-01-30T13:41:43;3.42;;;1.45;;
78844;SDS011;68195;50.854;2.860;2024-01-30T13:44:10;3.67;;;1.52;;
78844;SDS011;68195;50.854;2.860;2024-01-30T13:46:41;3.58;;;1.60;;
78844;SDS011;68195;50.854;2.860;2024-01-30T13:49:09;4.38;;;1.45;;
78844;SDS011;68195;50.854;2.860;2024-01-30T13:51:36;4.93;;;1.60;;
78844;SDS011;68195;50.854;2.860;2024-01-30T13:54:02;10.40;;;2.10;;
78844;SDS011;68195;50.854;2.860;2024-01-30T13:56:30;3.55;;;1.52;;
78844;SDS011;68195;50.854;2.860;2024-01-30T13:58:55;4.35;;;1.80;;
78844;SDS011;68195;50.854;2.860;2024-01-30T14:01:24;7.20;;;2.00;;
78844;SDS011;68195;50.854;2.860;2024-01-30T14:03:49;4.35;;;1.55;;
78844;SDS011;68195;50.854;2.860;2024-01-30T14:06:15;5.13;;;1.70;;
78844;SDS011;68195;50.854;2.860;2024-01-30T14:08:43;3.25;;;1.80;;
78844;SDS011;68195;50.854;2.860;2024-01-30T14:11:08;5.88;;;2.00;;
78844;SDS011;68195;50.854;2.860;2024-01-30T14:13:36;9.93;;;1.90;;
78844;SDS011;68195;50.854;2.860;2024-01-30T14:16:01;4.72;;;2.00;;
78844;SDS011;68195;50.854;2.860;2024-01-30T14:18:29;3.55;;;1.85;;
78844;SDS011;68195;50.854;2.860;2024-01-30T14:20:57;4.72;;;1.98;;
78844;SDS011;68195;50.854;2.860;2024-01-30T14:23:25;4.97;;;1.98;;
78844;SDS011;68195;50.854;2.860;2024-01-30T14:25:51;4.32;;;1.50;;
78844;SDS011;68195;50.854;2.860;2024-01-30T14:28:18;4.13;;;1.70;;
78844;SDS011;68195;50.854;2.860;2024-01-30T14:30:44;2.67;;;1.50;;
78844;SDS011;68195;50.854;2.860;2024-01-30T14:33:12;4.20;;;1.33;;
78844;SDS011;68195;50.854;2.860;2024-01-30T14:35:40;6.05;;;2.10;;
78844;SDS011;68195;50.854;2.860;2024-01-30T14:38:05;3.47;;;1.67;;
78844;SDS011;68195;50.854;2.860;2024-01-30T14:40:32;4.28;;;1.98;;
78844;SDS011;68195;50.854;2.860;2024-01-30T14:42:58;3.67;;;1.67;;
78844;SDS011;68195;50.854;2.860;2024-01-30T14:45:23;11.60;;;2.05;;
78844;SDS011;68195;50.854;2.860;2024-01-30T14:47:48;4.60;;;1.75;;
78844;SDS011;68195;50.854;2.860;2024-01-30T14:50:17;3.88;;;1.45;;
78844;SDS011;68195;50.854;2.860;2024-01-30T14:52:45;2.92;;;1.92;;
78844;SDS011;68195;50.854;2.860;2024-01-30T14:55:10;2.45;;;1.55;;
78844;SDS011;68195;50.854;2.860;2024-01-30T14:57:36;3.70;;;1.63;;